ENVAENBR

Guest
Details From ENVA - Vaernes
To ENBR - Bergen Lufthavn Flesland
Flight Number -
Tags decoded
Created
Modified
Stats Distance 249 nm / 461 km
Max Altitude 0 ft / 0 m
Waypoints 2
Social Downloads 11
Likes 0
Share VATSIM

Download

Looking for another format? Having issues loading an existing format? Contact us
Advertisement - Login to hide

Notes

Requested: ENVA NELSU EVNAN INTUM ENBR Unmatched points: NELSU EVNAN INTUM

Route

ENVA ENBR

ID Type Via Altitude Latitude Longitude Leg Dist Tot Dist Heading (true) Name
O ENVA APT - 0 ft / 0 m 63.45760˚ 10.91798˚ - 0 nm - Vaernes
O ENBR APT - 0 ft / 0 m 60.29339˚ 5.21814˚ 249 nm 249 nm 223° / 218° Bergen Lufthavn Flesland

Altitude Profile

Advertisement - Login to hide

Weather


0- 5 10 15 20 25 30 35+ Temperature / ° C

Clouds and Precipitation
Forecast for 2018-05-21 12:00 UTC. Updated 2 hours ago

Ground ~20,000 ft ~40,000 ft Winds

ENVA

Details ICAO ENVA (TRD)
Name Vaernes
Region Norway
Timezone Europe/Oslo (UTC+2.0)
Stats Elevation 56 ft / 17 m (AMSL)
Location 63.457605° 10.917980°
Runways 1
Magnetic Variation 3.578° E

METAR

ENVA 211250Z 24014KT CAVOK 21/09 Q1020 NOSIG RMK WIND 670FT 27010KT

Decode

TAF

TAF ENVA 211100Z 2112/2212 27012KT CAVOK BECMG 2118/2120 VRB03KT BECMG 2208/2210 27012KT

Decode

Departure Runways

ID Width Length Bearing (true) Bearing (mag) Surface Threshold Offset Overrun Length
09 148 ft / 45 m 9,356 ft / 2,852 m 90.21° 86.63° Asphalt 984 ft / 300 m 0 ft / 0 m
27 148 ft / 45 m 9,356 ft / 2,852 m 270.26° 266.68° Asphalt 689 ft / 210 m 0 ft / 0 m

ENBR

Details ICAO ENBR (BGO)
Name Bergen Lufthavn Flesland
Region Norway
Timezone Europe/Oslo (UTC+2.0)
Stats Elevation 165 ft / 50 m (AMSL)
Location 60.293388° 5.218140°
Runways 1
Magnetic Variation 0.918° E

METAR

ENBR 211250Z 21013KT CAVOK 18/07 Q1023 NOSIG RMK WIND 1200FT 21020KT

Decode

TAF

TAF ENBR 211100Z 2112/2212 19012KT 9999 FEW040 BECMG 2119/2121 VRB03KT BECMG 2208/2210 34010KT

Decode

Destination Runways

ID Width Length Bearing (true) Bearing (mag) Surface Threshold Offset Overrun Length
17 148 ft / 45 m 9,793 ft / 2,985 m 170.56° 169.64° Asphalt 886 ft / 270 m 0 ft / 0 m
35 148 ft / 45 m 9,793 ft / 2,985 m 350.57° 349.65° Asphalt 886 ft / 270 m 0 ft / 0 m

Approach Navaids

Runway Type Ident Frequency Range Bearing (true) Bearing (mag) Slope Elevation
17 Localiser BR 109.90 MHz 18 nm / 33 km 170.56° 169.65° - 165 ft / 50 m (AMSL)
17 Glidescope BR 109.90 MHz 10 nm / 19 km 170.56° 169.65° 3.10° 165 ft / 50 m (AMSL)
35 Localiser BG 110.50 MHz 18 nm / 33 km 350.55° 349.63° - 165 ft / 50 m (AMSL)
35 Glidescope BG 110.50 MHz 10 nm / 19 km 350.56° 349.65° 3.00° 165 ft / 50 m (AMSL)

Popular Alternatives